Time;durP1;ratioP1;P1;durP2;ratioP2;P2;SDS_P1;SDS_P2;PMS_P1;PMS_P2;Temp;Humidity;BMP_temperature;BMP_pressure;BME280_temperature;BME280_humidity;BME280_pressure;Samples;Min_cycle;Max_cycle;Signal;HPM_P1;HPM_P2
2021/01/29 00:01:20;;;;;;;30.05;8.55;;;9.40;99.90;;;;;;5076767;28;20212;-76
2021/01/29 00:03:47;;;;;;;19.45;7.93;;;9.50;99.90;;;;;;5084874;28;21152;-75
2021/01/29 00:06:13;;;;;;;22.65;7.93;;;9.40;99.90;;;;;;5080593;28;20206;-76
2021/01/29 00:08:40;;;;;;;29.88;6.75;;;9.40;99.90;;;;;;5083505;28;20206;-76
2021/01/29 00:11:06;;;;;;;26.88;7.40;;;9.50;99.90;;;;;;5087814;28;20238;-76
2021/01/29 00:13:33;;;;;;;18.65;8.57;;;9.40;99.90;;;;;;5074315;28;20188;-76
2021/01/29 00:15:59;;;;;;;22.23;8.90;;;9.40;99.90;;;;;;5089354;28;20203;-76
2021/01/29 00:18:25;;;;;;;27.50;10.57;;;9.40;99.90;;;;;;5084718;28;20207;-76
2021/01/29 00:20:53;;;;;;;27.30;12.05;;;9.40;99.90;;;;;;5086446;28;20204;-76
2021/01/29 00:23:20;;;;;;;28.27;9.77;;;9.40;99.90;;;;;;5084626;28;20203;-76
2021/01/29 00:25:49;;;;;;;22.52;7.38;;;9.40;99.90;;;;;;5088228;28;20184;-77
2021/01/29 00:28:17;;;;;;;19.33;7.85;;;9.40;99.90;;;;;;5081253;28;20211;-78
2021/01/29 00:30:44;;;;;;;19.02;7.05;;;9.30;99.90;;;;;;5089988;28;20219;-76
2021/01/29 00:33:12;;;;;;;17.40;7.35;;;9.40;99.90;;;;;;5086494;28;20665;-76
2021/01/29 00:35:39;;;;;;;20.83;8.40;;;9.30;99.90;;;;;;5084637;28;20195;-77
2021/01/29 00:38:07;;;;;;;17.33;7.75;;;9.40;99.90;;;;;;5085207;28;20231;-77
2021/01/29 00:40:34;;;;;;;14.38;6.43;;;9.40;99.90;;;;;;5087711;28;20183;-77
2021/01/29 00:43:03;;;;;;;18.48;6.65;;;9.40;99.90;;;;;;5086379;28;20231;-78
2021/01/29 00:45:31;;;;;;;21.35;7.07;;;9.40;99.90;;;;;;5089591;28;20717;-77
2021/01/29 00:47:58;;;;;;;10.52;6.72;;;9.40;99.90;;;;;;5084052;28;20199;-76
2021/01/29 00:50:25;;;;;;;13.52;6.15;;;9.40;99.90;;;;;;5087730;28;20637;-76
2021/01/29 00:52:51;;;;;;;18.50;6.85;;;9.40;99.90;;;;;;5087219;28;20708;-76
2021/01/29 00:55:19;;;;;;;20.70;6.50;;;9.40;99.90;;;;;;5085556;28;22062;-76
2021/01/29 00:57:46;;;;;;;18.88;7.13;;;9.40;99.90;;;;;;5089669;28;20188;-77
2021/01/29 01:00:14;;;;;;;15.68;6.13;;;9.40;99.90;;;;;;5081878;28;20219;-77
2021/01/29 01:02:41;;;;;;;17.90;7.15;;;9.40;99.90;;;;;;5063262;28;20200;-77
2021/01/29 01:05:09;;;;;;;17.17;5.70;;;9.40;99.90;;;;;;5072962;28;20196;-76
2021/01/29 01:07:35;;;;;;;11.43;5.13;;;9.40;99.90;;;;;;5069329;28;20208;-76
2021/01/29 01:10:02;;;;;;;23.27;6.05;;;9.40;99.90;;;;;;5069191;28;20498;-75
2021/01/29 01:12:29;;;;;;;21.08;5.45;;;9.40;99.90;;;;;;5070412;28;20589;-76
2021/01/29 01:14:55;;;;;;;13.35;5.40;;;9.40;99.90;;;;;;5065618;28;20204;-77
2021/01/29 01:17:22;;;;;;;9.57;5.35;;;9.40;99.90;;;;;;5062874;28;20197;-76
2021/01/29 01:19:48;;;;;;;14.15;5.72;;;9.40;99.90;;;;;;5075199;28;20404;-78
2021/01/29 01:22:14;;;;;;;9.00;4.65;;;9.40;99.90;;;;;;5071312;28;20184;-77
2021/01/29 01:24:41;;;;;;;14.27;5.70;;;9.40;99.90;;;;;;5068694;28;20196;-76
2021/01/29 01:27:08;;;;;;;11.52;4.88;;;9.40;99.90;;;;;;5062804;28;20200;-76
2021/01/29 01:29:36;;;;;;;7.80;4.97;;;9.40;99.90;;;;;;5058327;28;20193;-77
2021/01/29 01:32:03;;;;;;;12.23;5.78;;;9.40;99.90;;;;;;5070512;28;20263;-75
2021/01/29 01:34:30;;;;;;;8.77;5.40;;;9.40;99.90;;;;;;5077624;28;20189;-77
2021/01/29 01:36:56;;;;;;;10.40;5.95;;;9.40;99.90;;;;;;5071592;28;20199;-76
2021/01/29 01:39:23;;;;;;;13.52;5.47;;;9.40;99.90;;;;;;5063668;28;20571;-75
2021/01/29 01:41:50;;;;;;;13.23;6.22;;;9.40;99.90;;;;;;5067869;28;20195;-76
2021/01/29 01:44:29;;;;;;;17.15;6.63;;;9.40;99.90;;;;;;5060629;28;20546;-77
2021/01/29 01:46:58;;;;;;;16.13;7.93;;;9.40;99.90;;;;;;5072738;28;20231;-76
2021/01/29 01:49:26;;;;;;;16.77;6.18;;;9.40;99.90;;;;;;5064564;28;20574;-76
2021/01/29 01:51:57;;;;;;;18.67;7.05;;;9.50;99.90;;;;;;5069068;28;20246;-75
2021/01/29 01:54:32;;;;;;;23.13;6.13;;;9.50;99.90;;;;;;5067863;28;20219;-76
2021/01/29 01:57:01;;;;;;;9.93;5.30;;;9.50;99.90;;;;;;5060653;28;20247;-77
2021/01/29 01:59:32;;;;;;;14.80;5.40;;;9.50;99.90;;;;;;5067181;28;20207;-78
2021/01/29 02:02:00;;;;;;;12.82;5.13;;;9.50;99.90;;;;;;5068070;28;20278;-76
2021/01/29 02:04:33;;;;;;;12.13;4.97;;;9.50;99.90;;;;;;5058694;28;20187;-76
2021/01/29 02:07:07;;;;;;;14.40;5.38;;;9.50;99.90;;;;;;5066853;28;20306;-78
2021/01/29 02:09:39;;;;;;;10.43;6.15;;;9.50;99.90;;;;;;5066744;28;20223;-75
2021/01/29 02:12:07;;;;;;;10.13;4.95;;;9.50;99.90;;;;;;5063405;28;20687;-75
2021/01/29 02:14:33;;;;;;;12.18;6.10;;;9.50;99.90;;;;;;5062158;28;20192;-76
2021/01/29 02:17:07;;;;;;;10.98;4.95;;;9.50;99.90;;;;;;5066247;28;20192;-75
2021/01/29 02:20:12;;;;;;;15.40;5.85;;;9.50;99.90;;;;;;5059873;28;20199;-75
2021/01/29 02:23:12;;;;;;;10.68;5.97;;;9.50;99.90;;;;;;5063145;28;20275;-78
2021/01/29 02:26:11;;;;;;;13.13;5.72;;;9.50;99.90;;;;;;5064210;28;20196;-75
2021/01/29 02:29:16;;;;;;;13.55;5.80;;;9.50;99.90;;;;;;5057651;28;20204;-75
2021/01/29 02:31:53;;;;;;;11.82;5.90;;;9.50;99.90;;;;;;5062918;28;20227;-75
2021/01/29 02:35:13;;;;;;;7.50;5.30;;;9.50;99.90;;;;;;5064961;28;20204;-74
2021/01/29 02:38:11;;;;;;;12.20;5.55;;;9.50;99.90;;;;;;5028864;28;20193;-77
2021/01/29 02:40:45;;;;;;;7.20;5.05;;;9.50;99.90;;;;;;5057879;28;20247;-77
2021/01/29 02:43:42;;;;;;;10.68;5.32;;;9.50;99.90;;;;;;5059079;28;20215;-76
2021/01/29 02:46:14;;;;;;;12.60;5.45;;;9.50;99.90;;;;;;5068657;28;20200;-74
2021/01/29 02:48:56;;;;;;;17.02;6.43;;;9.50;99.90;;;;;;5057685;28;20201;-75
2021/01/29 02:51:29;;;;;;;9.15;5.57;;;9.50;99.90;;;;;;5061210;28;20208;-75
2021/01/29 02:54:04;;;;;;;14.68;4.80;;;9.40;99.90;;;;;;5062321;28;20188;-75
2021/01/29 02:56:36;;;;;;;14.32;5.30;;;9.50;99.90;;;;;;5065124;28;20193;-78
2021/01/29 02:59:09;;;;;;;7.65;4.80;;;9.40;99.90;;;;;;5074422;28;20548;-75
2021/01/29 03:01:40;;;;;;;12.13;4.55;;;9.40;99.90;;;;;;5063016;28;20283;-75
2021/01/29 03:04:11;;;;;;;12.15;4.22;;;9.50;99.90;;;;;;5063266;28;20201;-76
2021/01/29 03:06:43;;;;;;;14.27;3.58;;;9.40;99.90;;;;;;5061272;28;20200;-75
2021/01/29 03:09:16;;;;;;;20.05;4.10;;;9.40;99.90;;;;;;5057506;28;20226;-76
2021/01/29 03:11:49;;;;;;;11.43;3.78;;;9.40;99.90;;;;;;5060046;28;20216;-75
2021/01/29 03:14:20;;;;;;;7.63;4.13;;;9.40;99.90;;;;;;5059292;28;20197;-76
2021/01/29 03:16:51;;;;;;;9.65;3.72;;;9.40;99.90;;;;;;5058083;28;20192;-76
2021/01/29 03:19:26;;;;;;;9.57;4.35;;;9.40;99.90;;;;;;5066313;28;20658;-75
2021/01/29 03:21:58;;;;;;;7.57;3.63;;;9.40;99.90;;;;;;5065298;28;20281;-76
2021/01/29 03:24:32;;;;;;;8.48;3.35;;;9.40;99.90;;;;;;5061956;28;20207;-79
2021/01/29 03:27:04;;;;;;;4.70;3.33;;;9.40;99.90;;;;;;5058229;28;20193;-75
2021/01/29 03:29:37;;;;;;;9.77;4.40;;;9.40;99.90;;;;;;5061795;28;20203;-76
2021/01/29 03:32:06;;;;;;;9.00;2.75;;;9.40;99.90;;;;;;5057382;28;20571;-76
2021/01/29 03:34:37;;;;;;;5.68;3.25;;;9.50;99.90;;;;;;5062130;28;20236;-76
2021/01/29 03:37:07;;;;;;;4.85;3.30;;;9.50;99.90;;;;;;5066050;28;20197;-75
2021/01/29 03:39:37;;;;;;;5.25;3.35;;;9.50;99.90;;;;;;5064886;28;20199;-76
2021/01/29 03:42:18;;;;;;;12.88;3.10;;;9.50;99.90;;;;;;5060130;28;20188;-77
2021/01/29 03:44:50;;;;;;;4.20;2.50;;;9.50;99.90;;;;;;5059797;28;20197;-76
2021/01/29 03:47:25;;;;;;;7.18;3.20;;;9.50;99.90;;;;;;5056496;28;20212;-75
2021/01/29 03:50:04;;;;;;;6.57;3.22;;;9.50;99.90;;;;;;5064560;28;20206;-76
2021/01/29 03:52:40;;;;;;;4.45;2.50;;;9.50;99.90;;;;;;5063001;28;20232;-78
2021/01/29 03:55:18;;;;;;;5.68;3.20;;;9.50;99.90;;;;;;5064805;28;20213;-76
2021/01/29 03:57:54;;;;;;;12.85;2.53;;;9.50;99.90;;;;;;5061664;28;20273;-79
2021/01/29 04:00:28;;;;;;;4.40;2.75;;;9.50;99.90;;;;;;5056451;28;20720;-76
2021/01/29 04:03:03;;;;;;;4.55;2.58;;;9.50;99.90;;;;;;5069575;28;20429;-78
2021/01/29 04:05:33;;;;;;;7.93;2.90;;;9.50;99.90;;;;;;5058595;28;20184;-79
2021/01/29 04:08:07;;;;;;;2.38;1.67;;;9.50;99.90;;;;;;5059965;28;20644;-76
2021/01/29 04:10:34;;;;;;;6.10;2.35;;;9.50;99.90;;;;;;5067025;28;20202;-76
2021/01/29 04:13:06;;;;;;;4.88;2.10;;;9.50;99.90;;;;;;5059758;28;20196;-76
2021/01/29 04:15:40;;;;;;;8.45;2.65;;;9.50;99.90;;;;;;5060295;28;20656;-76
2021/01/29 04:18:12;;;;;;;14.45;2.88;;;9.60;99.90;;;;;;5062965;28;20216;-77
2021/01/29 04:20:49;;;;;;;7.80;2.28;;;9.60;99.90;;;;;;5060005;28;20208;-79
2021/01/29 04:23:20;;;;;;;4.65;2.45;;;9.50;99.90;;;;;;5059300;28;20181;-77
2021/01/29 04:25:56;;;;;;;3.45;2.35;;;9.60;99.90;;;;;;5063952;28;20560;-78
2021/01/29 04:28:25;;;;;;;5.82;3.33;;;9.50;99.90;;;;;;5065121;28;20648;-74
2021/01/29 04:30:55;;;;;;;4.50;3.20;;;9.50;99.90;;;;;;5053572;28;20235;-75
2021/01/29 04:33:26;;;;;;;5.55;2.53;;;9.60;99.90;;;;;;5060867;28;20188;-77
2021/01/29 04:35:57;;;;;;;1.88;1.77;;;9.60;99.90;;;;;;5053013;28;20215;-74
2021/01/29 04:38:42;;;;;;;6.30;1.52;;;9.60;99.90;;;;;;5063919;28;20753;-75
2021/01/29 04:41:23;;;;;;;1.00;0.90;;;9.60;99.90;;;;;;5059924;28;20196;-75
2021/01/29 04:44:06;;;;;;;1.10;1.00;;;9.60;99.90;;;;;;5057667;28;20192;-75
2021/01/29 04:46:58;;;;;;;1.30;0.98;;;9.70;99.90;;;;;;5064369;28;20199;-75
2021/01/29 04:49:35;;;;;;;1.85;1.08;;;9.70;99.90;;;;;;5059142;28;20192;-75
2021/01/29 04:52:41;;;;;;;2.70;1.20;;;9.70;99.90;;;;;;5063039;28;20228;-76
2021/01/29 04:55:43;;;;;;;1.52;1.20;;;9.70;99.90;;;;;;4998957;28;20580;-78
2021/01/29 04:58:13;;;;;;;1.30;1.20;;;9.70;99.90;;;;;;5064157;28;20287;-78
2021/01/29 05:01:21;;;;;;;1.10;1.00;;;9.70;99.90;;;;;;5069889;28;20215;-77
2021/01/29 05:04:44;;;;;;;1.40;1.30;;;9.80;99.90;;;;;;5087388;28;20256;-75
2021/01/29 05:07:43;;;;;;;1.70;1.55;;;9.80;99.90;;;;;;5085034;28;20206;-76
2021/01/29 05:10:30;;;;;;;1.40;1.30;;;9.80;99.90;;;;;;5091220;28;20200;-75
2021/01/29 05:13:29;;;;;;;4.13;1.50;;;9.80;99.90;;;;;;5090989;28;20257;-75
2021/01/29 05:16:37;;;;;;;1.48;1.38;;;9.80;99.90;;;;;;5064033;28;20305;-77
2021/01/29 05:19:24;;;;;;;3.88;1.30;;;9.80;99.90;;;;;;5082049;28;20443;-76
2021/01/29 05:22:27;;;;;;;1.92;1.40;;;9.80;99.90;;;;;;5091669;28;20291;-79
2021/01/29 05:25:41;;;;;;;1.50;1.40;;;9.80;99.90;;;;;;5057448;28;20659;-75
2021/01/29 05:28:41;;;;;;;2.00;1.33;;;9.80;99.90;;;;;;5087492;28;20765;-75
2021/01/29 05:31:37;;;;;;;2.08;1.88;;;9.80;99.90;;;;;;5089844;28;20219;-77
2021/01/29 05:34:16;;;;;;;2.70;1.65;;;9.90;99.90;;;;;;5085353;28;20202;-74
2021/01/29 05:37:04;;;;;;;1.77;1.30;;;9.90;99.90;;;;;;5083392;28;20199;-76
2021/01/29 05:39:46;;;;;;;2.40;1.65;;;9.90;99.90;;;;;;5080149;28;20199;-75
2021/01/29 05:42:32;;;;;;;2.03;1.83;;;9.90;99.90;;;;;;5082330;28;20188;-75
2021/01/29 05:45:23;;;;;;;2.40;2.17;;;9.90;99.90;;;;;;5081372;28;20536;-75
2021/01/29 05:48:10;;;;;;;2.60;2.40;;;9.90;99.90;;;;;;5085059;28;20247;-78
2021/01/29 05:50:53;;;;;;;3.05;2.85;;;9.90;99.90;;;;;;5082020;28;20199;-75
2021/01/29 05:53:35;;;;;;;4.00;3.60;;;9.90;99.90;;;;;;5083912;28;20219;-74
2021/01/29 05:56:09;;;;;;;3.40;2.15;;;9.90;99.90;;;;;;5078934;28;20187;-77
2021/01/29 05:59:03;;;;;;;2.10;2.00;;;9.90;99.90;;;;;;5087828;28;20187;-75
2021/01/29 06:01:59;;;;;;;3.15;1.90;;;9.90;99.90;;;;;;5091723;28;21062;-77
2021/01/29 06:04:52;;;;;;;2.38;1.60;;;9.90;99.90;;;;;;5083540;28;20549;-75
2021/01/29 06:07:33;;;;;;;1.58;1.48;;;9.90;99.90;;;;;;5080940;28;20195;-74
2021/01/29 06:10:38;;;;;;;2.28;1.73;;;9.90;99.90;;;;;;5097659;28;20233;-76
2021/01/29 06:13:26;;;;;;;2.10;1.60;;;9.90;99.90;;;;;;5088706;28;20199;-74
2021/01/29 06:16:17;;;;;;;3.08;1.83;;;9.90;99.90;;;;;;5081300;28;20200;-75
2021/01/29 06:19:26;;;;;;;3.88;2.30;;;9.90;99.90;;;;;;5085281;28;20257;-77
2021/01/29 06:22:37;;;;;;;2.30;2.10;;;9.90;99.90;;;;;;5083302;28;20282;-75
2021/01/29 06:25:20;;;;;;;4.28;2.28;;;9.90;99.90;;;;;;5002009;28;20647;-76
2021/01/29 06:28:29;;;;;;;2.50;2.30;;;9.90;99.90;;;;;;5082670;28;20259;-75
2021/01/29 06:31:15;;;;;;;2.72;2.38;;;9.80;99.90;;;;;;5034623;28;20279;-75
2021/01/29 06:34:01;;;;;;;3.65;2.50;;;9.80;99.90;;;;;;5082163;28;20200;-75
2021/01/29 06:36:42;;;;;;;3.08;2.88;;;9.80;99.90;;;;;;5086348;28;20196;-75
2021/01/29 06:39:18;;;;;;;8.20;2.70;;;9.80;99.90;;;;;;5081636;28;20665;-77
2021/01/29 06:42:05;;;;;;;3.05;2.75;;;9.80;99.90;;;;;;5082394;28;20454;-76
2021/01/29 06:44:57;;;;;;;2.85;2.65;;;9.80;99.90;;;;;;5081264;28;20274;-75
2021/01/29 06:47:41;;;;;;;4.53;2.65;;;9.80;99.90;;;;;;5076951;28;20196;-75
2021/01/29 06:50:30;;;;;;;3.80;3.50;;;9.80;99.90;;;;;;5075870;28;20197;-75
2021/01/29 06:53:31;;;;;;;5.53;3.47;;;9.80;99.90;;;;;;5084359;28;20287;-75
2021/01/29 06:56:15;;;;;;;5.80;3.30;;;9.80;99.90;;;;;;5085490;28;20454;-76
2021/01/29 06:59:21;;;;;;;3.90;2.50;;;9.80;99.90;;;;;;5085795;28;20226;-77
2021/01/29 07:02:00;;;;;;;3.17;2.95;;;9.80;99.90;;;;;;5067117;28;20224;-76
2021/01/29 07:04:59;;;;;;;4.22;3.35;;;9.80;99.90;;;;;;5068940;28;20525;-75
2021/01/29 07:07:53;;;;;;;6.40;3.05;;;9.80;99.90;;;;;;5058711;28;20645;-75
2021/01/29 07:10:42;;;;;;;6.45;3.40;;;9.80;99.90;;;;;;5066355;28;20204;-78
2021/01/29 07:13:21;;;;;;;4.22;3.35;;;9.80;99.90;;;;;;5060150;28;20195;-75
2021/01/29 07:16:05;;;;;;;7.00;3.22;;;9.90;99.90;;;;;;5059518;28;20219;-77
2021/01/29 07:19:06;;;;;;;7.57;3.60;;;9.90;99.90;;;;;;5057549;28;20193;-75
2021/01/29 07:21:43;;;;;;;8.48;3.42;;;9.90;99.90;;;;;;5062642;28;20204;-75
2021/01/29 07:24:37;;;;;;;3.55;3.03;;;9.90;99.90;;;;;;5062620;28;20555;-74
2021/01/29 07:27:16;;;;;;;6.05;4.28;;;9.90;99.90;;;;;;5063058;28;20194;-75
2021/01/29 07:30:10;;;;;;;5.95;3.60;;;9.90;99.90;;;;;;5058573;28;20205;-75
2021/01/29 07:32:45;;;;;;;6.18;3.13;;;9.90;99.90;;;;;;5060464;28;20278;-75
2021/01/29 07:35:28;;;;;;;3.88;2.83;;;9.90;99.90;;;;;;5061491;28;20192;-75
2021/01/29 07:38:31;;;;;;;2.50;2.30;;;9.90;99.90;;;;;;5068466;28;20184;-75
2021/01/29 07:41:21;;;;;;;3.40;1.90;;;9.90;99.90;;;;;;5061783;28;20549;-75
2021/01/29 07:43:59;;;;;;;2.83;2.25;;;9.90;99.90;;;;;;5063269;28;20192;-75
2021/01/29 07:46:53;;;;;;;2.58;1.73;;;9.90;99.90;;;;;;5064936;28;20205;-77
2021/01/29 07:49:33;;;;;;;2.58;2.38;;;9.90;99.90;;;;;;5053055;28;20207;-75
2021/01/29 07:52:12;;;;;;;5.97;2.53;;;9.90;99.90;;;;;;5053627;28;20291;-75
2021/01/29 07:54:55;;;;;;;7.53;3.28;;;9.90;99.90;;;;;;5060693;28;20184;-75
2021/01/29 07:57:32;;;;;;;10.88;5.03;;;9.90;99.90;;;;;;5053129;28;20193;-75
2021/01/29 08:00:25;;;;;;;12.00;3.47;;;9.90;99.90;;;;;;5053091;28;20195;-75
2021/01/29 08:03:22;;;;;;;7.68;3.45;;;9.90;99.90;;;;;;5075905;28;20644;-75
2021/01/29 08:05:54;;;;;;;6.63;4.13;;;9.90;99.90;;;;;;5079926;28;20211;-75
2021/01/29 08:08:25;;;;;;;10.52;5.00;;;9.90;99.90;;;;;;5086803;28;20213;-75
2021/01/29 08:10:54;;;;;;;17.98;6.45;;;9.90;99.90;;;;;;5082508;28;20194;-76
2021/01/29 08:13:28;;;;;;;11.52;3.90;;;10.00;99.90;;;;;;5080613;28;20203;-74
2021/01/29 08:16:14;;;;;;;15.63;4.50;;;10.00;99.90;;;;;;5081645;28;20192;-77
2021/01/29 08:18:48;;;;;;;18.40;5.30;;;10.00;99.90;;;;;;5072424;28;20196;-76
2021/01/29 08:21:51;;;;;;;21.50;6.55;;;10.00;99.90;;;;;;5086967;28;20687;-75
2021/01/29 08:24:48;;;;;;;11.02;4.15;;;10.00;99.90;;;;;;5085657;28;20188;-76
2021/01/29 08:27:53;;;;;;;10.95;4.15;;;10.00;99.90;;;;;;5073185;28;20198;-77
2021/01/29 08:30:55;;;;;;;13.02;3.83;;;9.90;99.90;;;;;;5052484;28;20191;-76
2021/01/29 08:33:56;;;;;;;19.52;5.18;;;10.00;99.90;;;;;;5058084;28;20295;-74
2021/01/29 08:36:44;;;;;;;21.45;4.85;;;10.00;99.90;;;;;;5090517;28;20217;-74
2021/01/29 08:39:17;;;;;;;9.80;3.50;;;10.00;99.90;;;;;;5091172;28;20196;-75
2021/01/29 08:41:54;;;;;;;12.98;4.32;;;10.00;99.90;;;;;;5096976;28;20200;-77
2021/01/29 08:44:46;;;;;;;18.00;5.38;;;10.00;99.90;;;;;;5088013;28;20200;-76
2021/01/29 08:47:27;;;;;;;21.10;4.53;;;10.00;99.90;;;;;;5096656;28;20655;-74
2021/01/29 08:50:10;;;;;;;12.57;3.55;;;10.00;99.90;;;;;;5087516;28;20219;-77
2021/01/29 08:53:01;;;;;;;23.85;6.15;;;10.00;99.90;;;;;;5082384;28;20238;-75
2021/01/29 08:55:40;;;;;;;10.60;4.07;;;10.00;99.90;;;;;;5044778;28;21304;-74
2021/01/29 08:58:11;;;;;;;14.50;4.78;;;10.00;99.90;;;;;;5088279;28;20249;-76
2021/01/29 09:00:40;;;;;;;16.48;5.97;;;9.90;99.90;;;;;;5094607;28;20215;-75
2021/01/29 09:03:18;;;;;;;14.48;4.60;;;10.00;99.90;;;;;;5086940;28;20285;-75
2021/01/29 09:05:48;;;;;;;17.23;4.78;;;9.90;99.90;;;;;;5086958;28;20262;-75
2021/01/29 09:08:18;;;;;;;20.38;4.57;;;9.90;99.90;;;;;;5090661;28;20298;-75
2021/01/29 09:11:01;;;;;;;11.35;3.85;;;9.90;99.90;;;;;;5092721;28;20206;-76
2021/01/29 09:13:30;;;;;;;23.45;4.55;;;9.90;99.90;;;;;;5085674;28;20225;-76
2021/01/29 09:16:03;;;;;;;11.98;4.25;;;9.90;99.90;;;;;;5087491;28;20196;-75
2021/01/29 09:18:35;;;;;;;17.65;6.85;;;9.90;99.90;;;;;;5077631;28;20223;-75
2021/01/29 09:21:08;;;;;;;20.17;5.90;;;9.90;99.90;;;;;;5085955;28;20220;-75
2021/01/29 09:23:46;;;;;;;19.60;3.70;;;10.00;99.90;;;;;;5085236;28;20602;-75
2021/01/29 09:26:19;;;;;;;11.48;3.60;;;9.90;99.90;;;;;;5081683;28;20212;-75
2021/01/29 09:28:54;;;;;;;12.93;4.30;;;10.00;99.90;;;;;;5085188;28;20199;-76
2021/01/29 09:31:26;;;;;;;21.08;5.20;;;10.00;99.90;;;;;;5084566;28;20641;-75
2021/01/29 09:33:57;;;;;;;21.25;4.55;;;10.00;99.90;;;;;;5078742;28;20204;-76
2021/01/29 09:36:27;;;;;;;15.82;4.38;;;10.00;99.90;;;;;;5077759;28;20261;-75
2021/01/29 09:38:58;;;;;;;15.77;5.10;;;10.00;99.90;;;;;;5086832;28;20710;-75
2021/01/29 09:41:30;;;;;;;22.75;6.55;;;10.00;99.90;;;;;;5080986;28;20200;-75
2021/01/29 09:44:02;;;;;;;21.73;4.22;;;10.00;99.90;;;;;;5079166;28;20192;-75
2021/01/29 09:46:32;;;;;;;13.27;4.10;;;10.00;99.90;;;;;;5079117;28;20203;-76
2021/01/29 09:49:03;;;;;;;12.63;4.10;;;10.00;99.90;;;;;;5082669;28;20230;-76
2021/01/29 09:51:41;;;;;;;26.23;4.13;;;10.10;99.90;;;;;;5079979;28;20231;-75
2021/01/29 09:54:15;;;;;;;14.40;4.10;;;10.00;99.90;;;;;;5081906;28;20191;-75
2021/01/29 09:56:45;;;;;;;13.15;3.42;;;10.10;99.90;;;;;;5082429;28;20254;-76
2021/01/29 09:59:23;;;;;;;22.65;5.00;;;10.10;99.90;;;;;;5084410;28;20188;-77
2021/01/29 10:01:56;;;;;;;25.00;4.03;;;10.10;99.90;;;;;;5081828;28;20888;-77
2021/01/29 10:04:29;;;;;;;11.45;3.72;;;10.20;99.90;;;;;;5084716;28;20198;-75
2021/01/29 10:07:02;;;;;;;16.98;4.28;;;10.20;99.90;;;;;;5079189;28;20254;-75
2021/01/29 10:09:34;;;;;;;24.55;3.72;;;10.20;99.90;;;;;;5079325;28;20307;-76
2021/01/29 10:12:07;;;;;;;13.10;3.88;;;10.20;99.90;;;;;;5078262;28;20851;-75
2021/01/29 10:14:42;;;;;;;16.77;4.72;;;10.20;99.90;;;;;;5079566;28;20205;-75
2021/01/29 10:17:17;;;;;;;24.02;4.10;;;10.20;99.90;;;;;;5081330;28;20196;-75
2021/01/29 10:19:51;;;;;;;12.88;3.42;;;10.30;99.90;;;;;;5082526;28;20199;-76
2021/01/29 10:22:46;;;;;;;19.25;6.32;;;10.30;99.90;;;;;;5080168;28;20259;-77
2021/01/29 10:25:24;;;;;;;18.63;3.77;;;10.30;99.90;;;;;;5080323;28;20196;-76
2021/01/29 10:27:53;;;;;;;18.60;4.60;;;10.30;99.90;;;;;;5079449;28;20965;-75
2021/01/29 10:30:27;;;;;;;16.05;4.95;;;10.30;99.90;;;;;;5081470;28;20195;-76
2021/01/29 10:33:01;;;;;;;17.52;4.25;;;10.20;99.90;;;;;;5081279;28;20223;-75
2021/01/29 10:35:31;;;;;;;14.80;3.83;;;10.20;99.90;;;;;;5081759;28;20256;-76
2021/01/29 10:38:05;;;;;;;22.92;4.25;;;10.20;99.90;;;;;;5083785;28;20972;-75
2021/01/29 10:40:37;;;;;;;23.10;4.20;;;10.20;99.90;;;;;;5084227;28;20203;-77
2021/01/29 10:43:10;;;;;;;15.05;5.25;;;10.30;99.90;;;;;;5079838;28;20199;-76
2021/01/29 10:46:03;;;;;;;13.52;3.70;;;10.30;99.90;;;;;;5083085;28;20216;-76
2021/01/29 10:48:43;;;;;;;13.77;3.72;;;10.30;99.90;;;;;;5078545;28;20288;-77
2021/01/29 10:51:21;;;;;;;10.70;3.00;;;10.40;99.90;;;;;;5083473;28;20210;-76
2021/01/29 10:53:54;;;;;;;13.43;4.13;;;10.40;99.90;;;;;;5080537;28;20330;-76
2021/01/29 10:56:24;;;;;;;15.20;5.00;;;10.40;99.90;;;;;;5077891;28;20560;-76
2021/01/29 10:58:56;;;;;;;18.63;4.80;;;10.40;99.90;;;;;;5079123;28;20208;-77
2021/01/29 11:01:30;;;;;;;16.55;4.03;;;10.40;99.90;;;;;;5068649;28;20920;-77
2021/01/29 11:04:03;;;;;;;13.80;3.67;;;10.50;99.90;;;;;;5064453;28;20201;-76
2021/01/29 11:06:43;;;;;;;13.90;4.53;;;10.50;99.90;;;;;;5065243;28;20201;-77
2021/01/29 11:09:19;;;;;;;14.60;3.20;;;10.50;99.90;;;;;;5065404;28;20303;-77
2021/01/29 11:11:53;;;;;;;12.47;3.73;;;10.50;99.90;;;;;;5063700;28;20219;-77
2021/01/29 11:14:25;;;;;;;13.13;3.80;;;10.50;99.90;;;;;;5063549;28;20498;-78
2021/01/29 11:17:00;;;;;;;13.13;3.10;;;10.50;99.90;;;;;;5063564;28;20489;-77
2021/01/29 11:19:34;;;;;;;19.83;3.83;;;10.50;99.90;;;;;;5063732;28;20591;-76
2021/01/29 11:22:19;;;;;;;14.15;2.80;;;10.50;99.90;;;;;;5063786;28;20191;-77
2021/01/29 11:25:07;;;;;;;11.18;3.75;;;10.50;99.90;;;;;;5062882;28;20204;-76
2021/01/29 11:27:37;;;;;;;13.63;4.00;;;10.50;99.90;;;;;;5062853;28;20247;-76
2021/01/29 11:30:12;;;;;;;15.25;4.20;;;10.50;99.90;;;;;;5062077;28;20193;-76
2021/01/29 11:32:40;;;;;;;11.40;3.90;;;10.50;99.90;;;;;;5063695;28;20223;-76
2021/01/29 11:35:25;;;;;;;20.10;4.10;;;10.60;99.90;;;;;;5066336;28;20573;-76
2021/01/29 11:38:10;;;;;;;16.90;4.00;;;10.60;99.90;;;;;;5065938;28;20196;-76
2021/01/29 11:40:42;;;;;;;17.58;3.13;;;10.60;99.90;;;;;;5062763;28;20455;-77
2021/01/29 11:43:13;;;;;;;16.15;3.95;;;10.60;99.90;;;;;;5063566;28;20197;-77
2021/01/29 11:45:48;;;;;;;21.43;3.80;;;10.60;99.90;;;;;;5063348;28;20275;-77
2021/01/29 11:48:19;;;;;;;15.00;4.40;;;10.60;99.90;;;;;;5063736;28;20462;-76
2021/01/29 11:50:50;;;;;;;14.32;3.17;;;10.60;99.90;;;;;;5064158;28;20194;-76
2021/01/29 11:53:24;;;;;;;22.75;3.60;;;10.60;99.90;;;;;;5065190;28;20235;-76
2021/01/29 11:55:58;;;;;;;12.30;2.80;;;10.60;99.90;;;;;;5065318;28;20200;-75
2021/01/29 11:58:34;;;;;;;16.57;3.50;;;10.60;99.90;;;;;;5063520;28;20855;-76
2021/01/29 12:01:06;;;;;;;15.38;3.80;;;10.70;99.90;;;;;;5072351;28;20481;-78
2021/01/29 12:03:41;;;;;;;17.90;3.30;;;10.70;99.90;;;;;;5082271;28;20265;-77
2021/01/29 12:06:14;;;;;;;9.80;2.73;;;10.80;99.90;;;;;;5079914;28;20230;-78
2021/01/29 12:08:48;;;;;;;11.80;3.17;;;10.80;99.90;;;;;;5079310;28;20462;-76
2021/01/29 12:11:25;;;;;;;11.63;3.70;;;10.90;99.90;;;;;;5080115;28;20195;-77
2021/01/29 12:13:58;;;;;;;7.63;2.90;;;11.00;99.90;;;;;;5084060;28;20462;-77
2021/01/29 12:16:28;;;;;;;10.50;2.97;;;11.00;99.90;;;;;;5086777;28;20465;-76
2021/01/29 12:18:56;;;;;;;11.52;3.20;;;11.00;99.90;;;;;;5087810;28;20462;-76
2021/01/29 12:21:34;;;;;;;14.53;3.63;;;11.00;99.90;;;;;;5083860;28;20932;-76
2021/01/29 12:24:06;;;;;;;11.83;3.67;;;11.10;99.90;;;;;;5081000;28;20461;-77
2021/01/29 12:26:42;;;;;;;10.13;3.03;;;11.10;99.90;;;;;;5081290;28;20453;-77
2021/01/29 12:29:21;;;;;;;9.27;2.60;;;11.10;99.90;;;;;;5083580;28;20830;-77
2021/01/29 12:32:04;;;;;;;10.47;2.77;;;11.10;99.90;;;;;;5084059;28;21346;-75
2021/01/29 12:34:35;;;;;;;14.10;3.70;;;11.10;99.90;;;;;;5082040;28;20937;-76
2021/01/29 12:37:08;;;;;;;11.20;3.03;;;11.10;99.90;;;;;;5082567;28;20460;-76
2021/01/29 12:39:39;;;;;;;9.07;3.40;;;11.00;99.90;;;;;;5083989;28;20460;-76
2021/01/29 12:42:12;;;;;;;12.13;2.83;;;11.00;99.90;;;;;;5082078;28;20485;-78
2021/01/29 12:47:20;;;;;;;13.30;3.50;;;10.90;99.90;;;;;;5024517;28;20538;-76
2021/01/29 12:49:55;;;;;;;11.37;3.07;;;10.90;99.90;;;;;;5041990;28;20243;-78
2021/01/29 12:52:27;;;;;;;7.03;2.53;;;10.90;99.90;;;;;;5042997;28;21227;-77
2021/01/29 12:55:04;;;;;;;13.30;3.10;;;10.80;99.90;;;;;;5041296;28;20239;-76
2021/01/29 12:57:34;;;;;;;9.00;2.20;;;10.80;99.90;;;;;;5039517;28;20455;-78
2021/01/29 13:00:17;;;;;;;10.73;2.47;;;10.80;99.90;;;;;;5038345;28;20514;-78
2021/01/29 13:03:05;;;;;;;5.40;2.83;;;10.70;99.90;;;;;;5038558;28;20466;-77
2021/01/29 13:05:55;;;;;;;7.67;2.00;;;10.70;99.90;;;;;;5039511;28;20194;-76
2021/01/29 13:08:36;;;;;;;9.17;2.67;;;10.60;99.90;;;;;;5037991;28;20464;-76
2021/01/29 13:11:09;;;;;;;11.63;2.70;;;10.60;99.90;;;;;;5039148;28;20568;-76
2021/01/29 13:13:45;;;;;;;14.20;3.10;;;10.60;99.90;;;;;;5039685;28;20461;-76
2021/01/29 13:16:19;;;;;;;11.47;3.23;;;10.60;99.90;;;;;;5040782;28;20852;-76
2021/01/29 13:19:03;;;;;;;8.03;2.27;;;10.60;99.90;;;;;;5041074;28;20467;-78
2021/01/29 13:21:33;;;;;;;8.93;3.10;;;10.60;99.90;;;;;;5040098;28;20841;-76
2021/01/29 13:24:02;;;;;;;6.17;2.17;;;10.60;99.90;;;;;;5038375;28;20463;-77
2021/01/29 13:26:34;;;;;;;9.53;2.80;;;10.60;99.90;;;;;;5037222;28;20468;-76
2021/01/29 13:29:05;;;;;;;8.27;2.10;;;10.60;99.90;;;;;;5039450;28;20460;-76
2021/01/29 13:31:34;;;;;;;16.63;2.47;;;10.60;99.90;;;;;;5037069;28;20483;-75
2021/01/29 13:34:10;;;;;;;5.95;2.05;;;10.70;99.90;;;;;;5032635;28;20206;-75
2021/01/29 13:36:37;;;;;;;5.97;1.83;;;10.60;99.90;;;;;;5039150;28;20197;-77
2021/01/29 13:39:15;;;;;;;4.65;2.47;;;10.60;99.90;;;;;;5038677;28;20208;-75
2021/01/29 13:41:49;;;;;;;6.83;2.10;;;10.60;99.90;;;;;;5038423;28;20201;-76
2021/01/29 13:44:33;;;;;;;11.15;2.60;;;10.60;99.90;;;;;;5039364;28;20462;-77
2021/01/29 13:47:00;;;;;;;8.80;2.45;;;10.50;99.90;;;;;;5037990;28;20197;-76